Lebanon Junction, Kentucky
Current Conditions -  °F | °C
As of 10:29 AM on Monday 24 Nov 2014 (Local Time) from KFTK Reporting Station
Light Rain Light Rain  
Wind Chill: 40°   Ceiling: 1200
Heat Index: 48°   Visibility: 5mi
Dew Point: 45°   Wind: 24mph
Humidity: 87%   Direction: 250°WSW
Pressure: 29.57"   Gusts: 33mph
Location:  37.83°N, 85.73°W
Report Text: KFTK 241529Z AUTO 25021G29KT 5SM -RA BR OVC012 09/07 A2957 RMK AO2 OVC V BKN
Loading
Personal Weather Stations






























Interactive Weather Map New forecast layout! Learn more

10-Day Weather Forecast

Advertisements
Track Severe Weather on mobile